createdAt,value
2023-03-24T00:03:01.843Z,13.65
2023-03-24T00:13:05.068Z,13.55
2023-03-24T00:23:07.358Z,13.44
2023-03-24T00:33:10.604Z,13.44
2023-03-24T00:43:13.879Z,13.45
2023-03-24T00:53:17.108Z,13.48
2023-03-24T01:03:22.561Z,13.50
2023-03-24T01:13:27.909Z,13.47
2023-03-24T01:23:31.489Z,13.66
2023-03-24T01:33:34.057Z,13.95
2023-03-24T01:43:36.760Z,14.60
2023-03-24T01:53:45.300Z,14.94
2023-03-24T02:03:48.352Z,15.21
2023-03-24T02:13:50.871Z,15.20
2023-03-24T02:24:21.983Z,14.85
2023-03-24T02:34:45.881Z,14.54
2023-03-24T02:45:08.483Z,14.36
2023-03-24T02:55:21.498Z,14.17
2023-03-24T03:05:37.836Z,14.12
2023-03-24T03:15:46.289Z,14.16
2023-03-24T03:25:53.915Z,14.38
2023-03-24T03:36:07.772Z,14.89
2023-03-24T03:46:10.128Z,15.13
2023-03-24T03:56:13.162Z,15.67
2023-03-24T04:06:33.975Z,16.27
2023-03-24T04:16:52.666Z,15.90
2023-03-24T04:27:15.118Z,15.79
2023-03-24T04:37:26.326Z,15.49
2023-03-24T04:47:32.849Z,15.22
2023-03-24T04:57:35.158Z,14.95
2023-03-24T05:07:37.730Z,14.67
2023-03-24T05:17:40.828Z,14.39
2023-03-24T05:27:43.946Z,13.89
2023-03-24T05:37:47.003Z,13.55
2023-03-24T05:47:49.544Z,13.29
2023-03-24T05:57:52.019Z,13.26
2023-03-24T06:07:58.945Z,13.60
2023-03-24T06:18:01.975Z,13.83
2023-03-24T06:28:06.881Z,14.12
2023-03-24T06:38:10.124Z,14.06
2023-03-24T06:48:13.073Z,13.90
2023-03-24T06:58:17.200Z,13.88
2023-03-24T07:18:25.359Z,13.95
2023-03-24T07:28:27.971Z,13.84
2023-03-24T07:38:31.401Z,13.83
2023-03-24T07:48:34.229Z,13.88
2023-03-24T07:58:37.033Z,13.86
2023-03-24T08:08:39.713Z,13.97
2023-03-24T08:18:42.627Z,14.03
2023-03-24T08:28:45.320Z,14.19
2023-03-24T08:38:48.557Z,14.45
2023-03-24T08:48:51.196Z,14.27
2023-03-24T08:58:54.299Z,14.16
2023-03-24T09:08:57.542Z,13.75
2023-03-24T09:19:00.408Z,13.45
2023-03-24T09:29:03.618Z,13.31
2023-03-24T09:39:06.642Z,13.37
2023-03-24T09:49:17.078Z,13.32
2023-03-24T09:59:22.008Z,13.47
2023-03-24T10:09:29.410Z,13.39
2023-03-24T10:19:46.462Z,13.53
2023-03-24T10:29:52.860Z,13.57
2023-03-24T10:39:55.543Z,13.13
2023-03-24T10:50:11.900Z,12.74
2023-03-24T11:00:32.278Z,12.16
2023-03-24T11:10:34.928Z,11.75
2023-03-24T11:21:01.153Z,11.65
2023-03-24T11:31:09.024Z,11.64
2023-03-24T11:41:22.391Z,11.77
2023-03-24T11:51:36.746Z,12.04
2023-03-24T12:01:46.271Z,12.24
2023-03-24T12:12:25.797Z,12.36
2023-03-24T12:22:45.441Z,12.55
2023-03-24T12:33:21.038Z,12.89
2023-03-24T12:43:32.641Z,12.95
2023-03-24T12:53:54.814Z,12.79
2023-03-24T13:04:21.423Z,12.58
2023-03-24T13:14:31.740Z,12.33
2023-03-24T13:24:34.537Z,12.38
2023-03-24T13:34:49.640Z,12.90
2023-03-24T13:44:52.254Z,13.02
2023-03-24T13:55:02.801Z,12.92
2023-03-24T14:05:42.761Z,12.51
2023-03-24T14:15:57.582Z,12.22
2023-03-24T14:25:59.939Z,11.79
2023-03-24T14:36:12.335Z,11.43
2023-03-24T14:46:21.178Z,11.25
2023-03-24T14:56:24.713Z,11.09
2023-03-24T15:06:27.654Z,11.06
2023-03-24T15:16:32.997Z,11.41
2023-03-24T15:26:36.274Z,11.41
2023-03-24T15:36:41.556Z,10.98
2023-03-24T15:46:45.443Z,10.73
2023-03-24T15:57:21.725Z,10.60
2023-03-24T16:07:31.487Z,11.08
2023-03-24T16:17:34.648Z,10.81
2023-03-24T16:27:37.550Z,10.47
2023-03-24T16:37:40.526Z,10.24
2023-03-24T16:47:44.380Z,10.16
2023-03-24T16:57:46.910Z,10.07
2023-03-24T17:07:49.205Z,9.90
2023-03-24T17:17:55.820Z,9.88
2023-03-24T17:27:58.668Z,9.82
2023-03-24T17:38:01.861Z,9.69
2023-03-24T17:48:04.675Z,9.66
2023-03-24T17:58:07.300Z,9.45
2023-03-24T18:08:10.121Z,8.88
2023-03-24T18:18:13.130Z,8.38
2023-03-24T18:28:15.744Z,7.93
2023-03-24T18:38:22.703Z,7.49
2023-03-24T18:48:25.545Z,7.27
2023-03-24T18:58:29.090Z,7.02
2023-03-24T19:08:31.777Z,6.83
2023-03-24T19:18:37.371Z,6.71
2023-03-24T19:28:40.120Z,6.79
2023-03-24T19:38:42.881Z,7.13
2023-03-24T19:48:45.654Z,7.35
2023-03-24T19:58:48.309Z,7.38
2023-03-24T20:08:50.761Z,7.40
2023-03-24T20:18:53.600Z,7.45
2023-03-24T20:28:57.387Z,7.46
2023-03-24T20:38:59.934Z,7.42
2023-03-24T20:49:02.808Z,7.46
2023-03-24T20:59:07.202Z,7.47
2023-03-24T21:09:10.198Z,7.68
2023-03-24T21:19:13.573Z,7.87
2023-03-24T21:29:16.325Z,8.36
2023-03-24T21:39:19.172Z,9.04
2023-03-24T21:49:23.444Z,8.89
2023-03-24T21:59:26.274Z,8.77
2023-03-24T22:09:29.451Z,8.92
2023-03-24T22:19:31.989Z,8.52
2023-03-24T22:29:34.237Z,8.11
2023-03-24T22:39:36.674Z,8.21
2023-03-24T22:49:40.279Z,8.50
2023-03-24T22:59:42.881Z,8.41
2023-03-24T23:09:45.519Z,8.06
2023-03-24T23:19:47.816Z,7.74
2023-03-24T23:29:50.866Z,7.58
2023-03-24T23:39:54.304Z,7.71
2023-03-24T23:49:57.445Z,7.78
